sensor_id;sensor_type;location;lat;lon;timestamp;pressure;altitude;pressure_sealevel;temperature;humidity
57894;BME280;43710;47.460;19.034;2024-03-25T05:03:59;99605.37;;;8.12;70.03
57894;BME280;43710;47.460;19.034;2024-03-25T05:07:01;99606.66;;;8.14;70.01
57894;BME280;43710;47.460;19.034;2024-03-25T05:10:03;99625.69;;;8.08;71.00
57894;BME280;43710;47.460;19.034;2024-03-25T05:13:05;99621.66;;;8.10;70.23
57894;BME280;43710;47.460;19.034;2024-03-25T05:16:06;99623.38;;;8.25;69.97
57894;BME280;43710;47.460;19.034;2024-03-25T05:19:08;99624.97;;;8.26;69.66
57894;BME280;43710;47.460;19.034;2024-03-25T05:22:09;99623.09;;;8.27;68.90
57894;BME280;43710;47.460;19.034;2024-03-25T05:25:11;99622.97;;;8.13;68.98
57894;BME280;43710;47.460;19.034;2024-03-25T05:28:13;99620.72;;;8.25;70.81
57894;BME280;43710;47.460;19.034;2024-03-25T05:31:14;99626.31;;;8.23;71.21
57894;BME280;43710;47.460;19.034;2024-03-25T05:34:16;99636.44;;;8.27;77.49
57894;BME280;43710;47.460;19.034;2024-03-25T05:37:18;99638.34;;;8.50;77.94
57894;BME280;43710;47.460;19.034;2024-03-25T05:40:19;99650.25;;;8.39;70.47
57894;BME280;43710;47.460;19.034;2024-03-25T05:43:21;99658.09;;;8.25;71.04
57894;BME280;43710;47.460;19.034;2024-03-25T05:46:22;99648.97;;;8.31;71.71
57894;BME280;43710;47.460;19.034;2024-03-25T05:49:24;99651.44;;;8.22;73.16
57894;BME280;43710;47.460;19.034;2024-03-25T05:52:28;99659.25;;;8.14;73.93
57894;BME280;43710;47.460;19.034;2024-03-25T05:55:30;99664.69;;;8.04;80.54
57894;BME280;43710;47.460;19.034;2024-03-25T05:58:31;99664.13;;;8.07;74.26
57894;BME280;43710;47.460;19.034;2024-03-25T06:01:32;99667.88;;;8.06;78.74
57894;BME280;43710;47.460;19.034;2024-03-25T06:04:35;99654.09;;;7.93;75.80
57894;BME280;43710;47.460;19.034;2024-03-25T06:07:36;99661.44;;;8.12;75.88
57894;BME280;43710;47.460;19.034;2024-03-25T06:10:37;99650.25;;;8.39;79.32
57894;BME280;43710;47.460;19.034;2024-03-25T06:13:39;99654.22;;;8.41;75.73
57894;BME280;43710;47.460;19.034;2024-03-25T06:16:40;99660.94;;;8.39;76.52
57894;BME280;43710;47.460;19.034;2024-03-25T06:19:43;99658.47;;;8.42;81.56
57894;BME280;43710;47.460;19.034;2024-03-25T06:22:45;99649.91;;;8.45;76.12
57894;BME280;43710;47.460;19.034;2024-03-25T06:25:46;99653.31;;;8.51;77.10
57894;BME280;43710;47.460;19.034;2024-03-25T06:28:48;99656.22;;;8.55;79.70
57894;BME280;43710;47.460;19.034;2024-03-25T06:31:50;99655.94;;;8.56;79.35
57894;BME280;43710;47.460;19.034;2024-03-25T06:35:10;99657.75;;;8.61;76.02
57894;BME280;43710;47.460;19.034;2024-03-25T06:38:11;99657.47;;;8.62;79.25
57894;BME280;43710;47.460;19.034;2024-03-25T06:41:13;99655.88;;;8.61;74.98
57894;BME280;43710;47.460;19.034;2024-03-25T06:44:14;99670.44;;;8.74;74.17
57894;BME280;43710;47.460;19.034;2024-03-25T06:47:16;99669.28;;;8.80;74.15
57894;BME280;43710;47.460;19.034;2024-03-25T06:50:17;99674.06;;;8.83;76.20
57894;BME280;43710;47.460;19.034;2024-03-25T06:53:19;99672.44;;;8.87;74.34
57894;BME280;43710;47.460;19.034;2024-03-25T06:56:21;99670.63;;;9.02;73.84
57894;BME280;43710;47.460;19.034;2024-03-25T06:59:22;99680.03;;;8.99;77.69
57894;BME280;43710;47.460;19.034;2024-03-25T07:02:23;99679.34;;;8.88;72.98
57894;BME280;43710;47.460;19.034;2024-03-25T07:05:25;99693.03;;;9.06;75.18
57894;BME280;43710;47.460;19.034;2024-03-25T07:08:27;99699.97;;;9.07;71.98
57894;BME280;43710;47.460;19.034;2024-03-25T07:11:28;99676.72;;;9.07;72.79
57894;BME280;43710;47.460;19.034;2024-03-25T07:14:32;99679.47;;;9.21;72.95
57894;BME280;43710;47.460;19.034;2024-03-25T07:17:33;99675.66;;;9.27;73.64
57894;BME280;43710;47.460;19.034;2024-03-25T07:20:34;99685.31;;;9.23;70.72
57894;BME280;43710;47.460;19.034;2024-03-25T07:23:36;99683.06;;;9.30;69.36
57894;BME280;43710;47.460;19.034;2024-03-25T07:26:37;99681.50;;;9.48;70.33
57894;BME280;43710;47.460;19.034;2024-03-25T07:29:39;99699.22;;;9.44;68.36
57894;BME280;43710;47.460;19.034;2024-03-25T07:32:41;99695.75;;;9.25;69.59
57894;BME280;43710;47.460;19.034;2024-03-25T07:35:44;99693.88;;;9.25;68.99
57894;BME280;43710;47.460;19.034;2024-03-25T07:38:46;99695.87;;;9.33;68.06
57894;BME280;43710;47.460;19.034;2024-03-25T07:41:47;99705.94;;;9.41;70.57
57894;BME280;43710;47.460;19.034;2024-03-25T07:44:49;99699.66;;;9.51;71.35
57894;BME280;43710;47.460;19.034;2024-03-25T07:47:51;99707.31;;;9.58;70.10
57894;BME280;43710;47.460;19.034;2024-03-25T07:50:52;99708.84;;;9.64;68.62
57894;BME280;43710;47.460;19.034;2024-03-25T07:53:54;99700.09;;;9.58;67.64
57894;BME280;43710;47.460;19.034;2024-03-25T07:56:55;99700.25;;;9.67;76.50
57894;BME280;43710;47.460;19.034;2024-03-25T07:59:57;99708.53;;;9.65;69.06
57894;BME280;43710;47.460;19.034;2024-03-25T08:02:59;99708.91;;;9.59;66.07
57894;BME280;43710;47.460;19.034;2024-03-25T08:06:00;99704.94;;;9.56;66.36
57894;BME280;43710;47.460;19.034;2024-03-25T08:09:02;99718.81;;;9.58;65.88
57894;BME280;43710;47.460;19.034;2024-03-25T08:12:06;99711.37;;;9.55;67.06
57894;BME280;43710;47.460;19.034;2024-03-25T08:15:08;99715.50;;;9.48;65.74
57894;BME280;43710;47.460;19.034;2024-03-25T08:18:09;99712.31;;;9.46;65.58
57894;BME280;43710;47.460;19.034;2024-03-25T08:21:11;99715.00;;;9.64;66.43
57894;BME280;43710;47.460;19.034;2024-03-25T08:24:14;99707.03;;;9.78;65.78
57894;BME280;43710;47.460;19.034;2024-03-25T08:27:16;99707.38;;;9.91;65.74
57894;BME280;43710;47.460;19.034;2024-03-25T08:30:18;99703.81;;;9.95;66.57
57894;BME280;43710;47.460;19.034;2024-03-25T08:33:19;99706.22;;;9.97;64.27
57894;BME280;43710;47.460;19.034;2024-03-25T08:36:21;99702.47;;;10.11;64.55
57894;BME280;43710;47.460;19.034;2024-03-25T08:39:22;99706.47;;;10.14;63.80
57894;BME280;43710;47.460;19.034;2024-03-25T08:42:25;99703.75;;;10.33;65.00
57894;BME280;43710;47.460;19.034;2024-03-25T08:45:30;99706.94;;;10.49;64.29
57894;BME280;43710;47.460;19.034;2024-03-25T08:48:33;99697.72;;;10.55;62.32
57894;BME280;43710;47.460;19.034;2024-03-25T08:51:35;99702.41;;;10.63;63.92
57894;BME280;43710;47.460;19.034;2024-03-25T08:54:36;99709.16;;;10.61;61.84
57894;BME280;43710;47.460;19.034;2024-03-25T08:57:38;99713.63;;;10.51;63.03
57894;BME280;43710;47.460;19.034;2024-03-25T09:00:40;99692.19;;;10.51;60.14
57894;BME280;43710;47.460;19.034;2024-03-25T09:03:41;99704.97;;;10.54;59.62
57894;BME280;43710;47.460;19.034;2024-03-25T09:06:42;99688.13;;;10.54;59.59
57894;BME280;43710;47.460;19.034;2024-03-25T09:09:44;99694.56;;;10.80;58.90
57894;BME280;43710;47.460;19.034;2024-03-25T09:13:05;99699.62;;;10.96;58.03
57894;BME280;43710;47.460;19.034;2024-03-25T09:16:06;99692.59;;;11.00;57.65
57894;BME280;43710;47.460;19.034;2024-03-25T09:19:07;99699.03;;;10.85;57.76
57894;BME280;43710;47.460;19.034;2024-03-25T09:22:09;99695.44;;;10.76;61.85
57894;BME280;43710;47.460;19.034;2024-03-25T09:25:11;99692.88;;;10.85;58.25
57894;BME280;43710;47.460;19.034;2024-03-25T09:28:12;99684.94;;;10.93;58.42
57894;BME280;43710;47.460;19.034;2024-03-25T09:31:14;99684.31;;;11.10;57.41
57894;BME280;43710;47.460;19.034;2024-03-25T09:34:15;99675.84;;;11.31;64.06
57894;BME280;43710;47.460;19.034;2024-03-25T09:37:17;99685.66;;;11.35;57.82
57894;BME280;43710;47.460;19.034;2024-03-25T09:40:19;99679.66;;;11.52;55.46
57894;BME280;43710;47.460;19.034;2024-03-25T09:43:25;99687.00;;;11.60;56.06
57894;BME280;43710;47.460;19.034;2024-03-25T09:46:28;99696.53;;;11.66;55.23
57894;BME280;43710;47.460;19.034;2024-03-25T09:49:31;99685.22;;;11.56;60.93
57894;BME280;43710;47.460;19.034;2024-03-25T09:52:35;99683.47;;;11.37;55.12
57894;BME280;43710;47.460;19.034;2024-03-25T09:55:37;99693.91;;;11.39;55.71
57894;BME280;43710;47.460;19.034;2024-03-25T09:58:39;99684.81;;;11.12;57.49
57894;BME280;43710;47.460;19.034;2024-03-25T10:01:41;99689.50;;;11.07;57.52
57894;BME280;43710;47.460;19.034;2024-03-25T10:04:48;99678.88;;;10.88;62.00
57894;BME280;43710;47.460;19.034;2024-03-25T10:07:49;99698.25;;;10.71;60.68
57894;BME280;43710;47.460;19.034;2024-03-25T10:10:51;99685.34;;;10.87;59.53
57894;BME280;43710;47.460;19.034;2024-03-25T10:13:52;99685.41;;;11.23;60.98
57894;BME280;43710;47.460;19.034;2024-03-25T10:16:53;99697.16;;;11.13;52.47
57894;BME280;43710;47.460;19.034;2024-03-25T10:19:54;99670.78;;;11.15;59.25
57894;BME280;43710;47.460;19.034;2024-03-25T10:22:56;99670.97;;;11.33;54.26
57894;BME280;43710;47.460;19.034;2024-03-25T10:25:58;99675.47;;;11.60;54.61
57894;BME280;43710;47.460;19.034;2024-03-25T10:29:05;99678.59;;;11.75;53.08
57894;BME280;43710;47.460;19.034;2024-03-25T10:32:09;99677.94;;;11.92;52.03
57894;BME280;43710;47.460;19.034;2024-03-25T10:35:13;99679.63;;;11.88;52.93
57894;BME280;43710;47.460;19.034;2024-03-25T10:38:16;99672.25;;;11.94;52.62
57894;BME280;43710;47.460;19.034;2024-03-25T10:41:21;99676.81;;;12.16;53.13
57894;BME280;43710;47.460;19.034;2024-03-25T10:44:24;99678.22;;;12.13;50.20
57894;BME280;43710;47.460;19.034;2024-03-25T10:47:28;99670.03;;;12.18;50.37
57894;BME280;43710;47.460;19.034;2024-03-25T10:50:31;99665.19;;;12.29;50.17
57894;BME280;43710;47.460;19.034;2024-03-25T10:53:36;99671.75;;;12.45;51.48
57894;BME280;43710;47.460;19.034;2024-03-25T10:56:38;99674.91;;;12.39;49.42
57894;BME280;43710;47.460;19.034;2024-03-25T10:59:43;99675.38;;;12.41;57.41
57894;BME280;43710;47.460;19.034;2024-03-25T11:02:44;99658.03;;;12.16;47.64
57894;BME280;43710;47.460;19.034;2024-03-25T11:05:47;99665.28;;;12.15;47.41
57894;BME280;43710;47.460;19.034;2024-03-25T11:08:56;99654.12;;;12.31;48.89
57894;BME280;43710;47.460;19.034;2024-03-25T11:12:00;99650.59;;;12.61;49.75
57894;BME280;43710;47.460;19.034;2024-03-25T11:15:02;99660.84;;;12.51;47.92
57894;BME280;43710;47.460;19.034;2024-03-25T11:18:05;99651.00;;;12.37;48.13
57894;BME280;43710;47.460;19.034;2024-03-25T11:21:11;99652.31;;;12.17;46.95
57894;BME280;43710;47.460;19.034;2024-03-25T11:24:15;99651.59;;;12.26;48.00
57894;BME280;43710;47.460;19.034;2024-03-25T11:27:22;99662.41;;;12.43;49.22
57894;BME280;43710;47.460;19.034;2024-03-25T11:30:23;99656.03;;;12.30;49.84
57894;BME280;43710;47.460;19.034;2024-03-25T11:33:27;99650.13;;;12.19;48.24
57894;BME280;43710;47.460;19.034;2024-03-25T11:36:29;99652.38;;;12.26;48.22
57894;BME280;43710;47.460;19.034;2024-03-25T11:39:31;99649.03;;;12.20;48.41
57894;BME280;43710;47.460;19.034;2024-03-25T11:42:33;99661.94;;;12.10;47.13
57894;BME280;43710;47.460;19.034;2024-03-25T11:45:34;99688.22;;;11.76;51.29
57894;BME280;43710;47.460;19.034;2024-03-25T11:48:36;99687.81;;;11.11;59.23
57894;BME280;43710;47.460;19.034;2024-03-25T11:51:38;99690.50;;;10.69;60.37
57894;BME280;43710;47.460;19.034;2024-03-25T11:54:42;99685.12;;;10.69;62.41
57894;BME280;43710;47.460;19.034;2024-03-25T11:57:44;99676.00;;;10.84;62.74
57894;BME280;43710;47.460;19.034;2024-03-25T12:00:46;99675.09;;;10.89;60.33
57894;BME280;43710;47.460;19.034;2024-03-25T12:03:52;99674.91;;;10.85;58.92
57894;BME280;43710;47.460;19.034;2024-03-25T12:06:54;99676.13;;;10.93;61.11
57894;BME280;43710;47.460;19.034;2024-03-25T12:09:58;99671.00;;;11.05;59.83
57894;BME280;43710;47.460;19.034;2024-03-25T12:13:19;99674.50;;;11.19;59.54
57894;BME280;43710;47.460;19.034;2024-03-25T12:16:23;99670.75;;;11.43;57.54
57894;BME280;43710;47.460;19.034;2024-03-25T12:19:25;99671.81;;;11.56;57.07
57894;BME280;43710;47.460;19.034;2024-03-25T12:22:27;99671.41;;;11.48;56.60
57894;BME280;43710;47.460;19.034;2024-03-25T12:25:30;99686.13;;;11.51;55.39
57894;BME280;43710;47.460;19.034;2024-03-25T12:28:32;99691.31;;;11.47;55.08
57894;BME280;43710;47.460;19.034;2024-03-25T12:31:38;99680.47;;;11.52;57.68
57894;BME280;43710;47.460;19.034;2024-03-25T12:34:42;99686.63;;;11.53;54.55
57894;BME280;43710;47.460;19.034;2024-03-25T12:37:45;99685.84;;;11.39;53.68
57894;BME280;43710;47.460;19.034;2024-03-25T12:40:47;99699.84;;;10.99;55.48
57894;BME280;43710;47.460;19.034;2024-03-25T12:43:50;99706.09;;;10.95;55.20
57894;BME280;43710;47.460;19.034;2024-03-25T12:46:51;99704.59;;;11.02;54.70
57894;BME280;43710;47.460;19.034;2024-03-25T12:49:53;99707.56;;;11.15;58.74
57894;BME280;43710;47.460;19.034;2024-03-25T12:52:54;99703.50;;;11.17;58.30
57894;BME280;43710;47.460;19.034;2024-03-25T12:55:55;99708.94;;;11.26;57.83
57894;BME280;43710;47.460;19.034;2024-03-25T12:58:57;99703.44;;;11.45;60.54
57894;BME280;43710;47.460;19.034;2024-03-25T13:01:58;99709.50;;;11.50;59.54
57894;BME280;43710;47.460;19.034;2024-03-25T13:05:00;99706.19;;;11.53;59.93
57894;BME280;43710;47.460;19.034;2024-03-25T13:08:02;99703.69;;;11.93;66.69
57894;BME280;43710;47.460;19.034;2024-03-25T13:11:04;99699.72;;;12.13;58.64
57894;BME280;43710;47.460;19.034;2024-03-25T13:14:05;99702.47;;;11.99;57.81
57894;BME280;43710;47.460;19.034;2024-03-25T13:17:08;99698.03;;;11.81;56.66
57894;BME280;43710;47.460;19.034;2024-03-25T13:20:11;99711.78;;;11.80;55.94
57894;BME280;43710;47.460;19.034;2024-03-25T13:23:12;99701.75;;;11.71;57.24
57894;BME280;43710;47.460;19.034;2024-03-25T13:26:13;99708.22;;;11.84;56.61
57894;BME280;43710;47.460;19.034;2024-03-25T13:29:15;99710.91;;;11.84;53.01
57894;BME280;43710;47.460;19.034;2024-03-25T13:32:17;99701.19;;;11.97;53.24
57894;BME280;43710;47.460;19.034;2024-03-25T13:35:19;99704.84;;;12.01;54.46
57894;BME280;43710;47.460;19.034;2024-03-25T13:38:20;99704.81;;;11.92;52.80
57894;BME280;43710;47.460;19.034;2024-03-25T13:41:21;99695.06;;;11.83;52.46
57894;BME280;43710;47.460;19.034;2024-03-25T13:44:25;99691.19;;;11.52;53.44
57894;BME280;43710;47.460;19.034;2024-03-25T13:47:26;99705.59;;;11.57;55.17
57894;BME280;43710;47.460;19.034;2024-03-25T13:50:28;99707.50;;;11.56;58.88
57894;BME280;43710;47.460;19.034;2024-03-25T13:53:29;99696.81;;;11.28;56.05
57894;BME280;43710;47.460;19.034;2024-03-25T13:56:31;99701.41;;;11.14;57.48
57894;BME280;43710;47.460;19.034;2024-03-25T13:59:32;99710.84;;;11.12;61.93
57894;BME280;43710;47.460;19.034;2024-03-25T14:02:34;99715.09;;;11.26;57.18
57894;BME280;43710;47.460;19.034;2024-03-25T14:05:37;99706.88;;;11.23;58.75
57894;BME280;43710;47.460;19.034;2024-03-25T14:08:38;99713.19;;;11.41;53.64
57894;BME280;43710;47.460;19.034;2024-03-25T14:11:40;99711.63;;;11.26;55.20
57894;BME280;43710;47.460;19.034;2024-03-25T14:14:41;99700.00;;;11.31;56.11
57894;BME280;43710;47.460;19.034;2024-03-25T14:17:43;99688.34;;;11.49;53.47
57894;BME280;43710;47.460;19.034;2024-03-25T14:20:44;99689.34;;;11.62;52.77
57894;BME280;43710;47.460;19.034;2024-03-25T14:23:46;99685.78;;;11.66;51.85
57894;BME280;43710;47.460;19.034;2024-03-25T14:26:47;99686.81;;;11.57;52.52
57894;BME280;43710;47.460;19.034;2024-03-25T14:29:49;99678.38;;;11.49;50.63
57894;BME280;43710;47.460;19.034;2024-03-25T14:32:50;99678.25;;;11.55;49.60
57894;BME280;43710;47.460;19.034;2024-03-25T14:35:51;99671.25;;;11.67;48.93
57894;BME280;43710;47.460;19.034;2024-03-25T14:38:53;99677.91;;;11.70;47.47
57894;BME280;43710;47.460;19.034;2024-03-25T14:41:55;99667.34;;;11.73;46.88
57894;BME280;43710;47.460;19.034;2024-03-25T14:44:56;99669.50;;;11.85;48.26
57894;BME280;43710;47.460;19.034;2024-03-25T14:47:58;99678.06;;;12.10;61.44
57894;BME280;43710;47.460;19.034;2024-03-25T14:50:59;99673.56;;;12.28;50.08
57894;BME280;43710;47.460;19.034;2024-03-25T14:54:01;99672.94;;;12.31;50.23
57894;BME280;43710;47.460;19.034;2024-03-25T14:57:04;99673.44;;;12.33;46.79
57894;BME280;43710;47.460;19.034;2024-03-25T15:00:06;99677.34;;;12.27;48.68
57894;BME280;43710;47.460;19.034;2024-03-25T15:03:07;99666.34;;;12.37;47.29
57894;BME280;43710;47.460;19.034;2024-03-25T15:06:08;99665.56;;;12.36;50.39
57894;BME280;43710;47.460;19.034;2024-03-25T15:09:10;99664.81;;;12.53;51.60
57894;BME280;43710;47.460;19.034;2024-03-25T15:12:11;99660.69;;;12.47;46.67
57894;BME280;43710;47.460;19.034;2024-03-25T15:15:13;99658.00;;;12.47;47.93
57894;BME280;43710;47.460;19.034;2024-03-25T15:18:14;99662.25;;;12.48;47.72
57894;BME280;43710;47.460;19.034;2024-03-25T15:21:15;99669.97;;;12.41;46.96
57894;BME280;43710;47.460;19.034;2024-03-25T15:24:17;99669.19;;;12.40;47.03
57894;BME280;43710;47.460;19.034;2024-03-25T15:27:18;99673.13;;;12.34;47.14
57894;BME280;43710;47.460;19.034;2024-03-25T15:30:19;99671.44;;;12.47;47.83
57894;BME280;43710;47.460;19.034;2024-03-25T15:33:22;99671.31;;;12.52;48.34
57894;BME280;43710;47.460;19.034;2024-03-25T15:36:24;99671.00;;;12.54;48.56
57894;BME280;43710;47.460;19.034;2024-03-25T15:39:26;99670.69;;;12.55;47.59
57894;BME280;43710;47.460;19.034;2024-03-25T15:42:28;99677.47;;;12.53;47.16
57894;BME280;43710;47.460;19.034;2024-03-25T15:45:29;99667.69;;;12.57;48.51
57894;BME280;43710;47.460;19.034;2024-03-25T15:48:31;99667.16;;;12.94;68.72
57894;BME280;43710;47.460;19.034;2024-03-25T15:51:32;99671.47;;;13.13;60.08
57894;BME280;43710;47.460;19.034;2024-03-25T15:54:34;99670.06;;;13.15;52.15
57894;BME280;43710;47.460;19.034;2024-03-25T15:57:35;99674.56;;;13.29;65.47
57894;BME280;43710;47.460;19.034;2024-03-25T16:00:37;99669.72;;;13.00;50.81
57894;BME280;43710;47.460;19.034;2024-03-25T16:03:38;99682.75;;;12.66;50.61
57894;BME280;43710;47.460;19.034;2024-03-25T16:06:40;99679.41;;;12.61;50.30
57894;BME280;43710;47.460;19.034;2024-03-25T16:09:41;99679.69;;;12.51;48.94
57894;BME280;43710;47.460;19.034;2024-03-25T16:12:42;99685.66;;;12.48;52.21
57894;BME280;43710;47.460;19.034;2024-03-25T16:15:45;99692.69;;;12.26;54.64
57894;BME280;43710;47.460;19.034;2024-03-25T16:18:46;99699.19;;;12.03;54.60
57894;BME280;43710;47.460;19.034;2024-03-25T16:21:49;99696.16;;;11.59;53.80
57894;BME280;43710;47.460;19.034;2024-03-25T16:24:50;99698.44;;;11.52;54.01
57894;BME280;43710;47.460;19.034;2024-03-25T16:27:52;99704.69;;;11.61;64.84
57894;BME280;43710;47.460;19.034;2024-03-25T16:30:54;99694.31;;;11.68;56.37
57894;BME280;43710;47.460;19.034;2024-03-25T16:33:55;99693.06;;;11.52;58.50
57894;BME280;43710;47.460;19.034;2024-03-25T16:36:56;99687.69;;;11.52;53.65
57894;BME280;43710;47.460;19.034;2024-03-25T16:39:58;99698.84;;;11.59;53.82
57894;BME280;43710;47.460;19.034;2024-03-25T16:43:00;99704.50;;;11.58;54.60
57894;BME280;43710;47.460;19.034;2024-03-25T16:46:01;99706.06;;;11.59;53.51
57894;BME280;43710;47.460;19.034;2024-03-25T16:49:03;99712.50;;;11.71;61.05
